createdAt,value
2019-05-21T00:00:10.693Z,28.60
2019-05-21T00:02:40.091Z,28.43
2019-05-21T00:05:09.970Z,28.83
2019-05-21T00:07:39.815Z,28.67
2019-05-21T00:10:10.030Z,30.70
2019-05-21T00:12:39.428Z,29.70
2019-05-21T00:15:09.424Z,30.07
2019-05-21T00:17:40.358Z,29.00
2019-05-21T00:20:10.749Z,29.17
2019-05-21T00:22:40.460Z,30.80
2019-05-21T00:25:10.353Z,29.03
2019-05-21T00:27:39.865Z,28.50
2019-05-21T00:31:04.237Z,28.90
2019-05-21T00:34:42.876Z,29.23
2019-05-21T00:37:53.868Z,28.13
2019-05-21T00:41:18.203Z,26.10
2019-05-21T00:43:54.866Z,28.60
2019-05-21T00:46:25.793Z,27.07
2019-05-21T00:48:55.153Z,26.87
2019-05-21T00:51:24.577Z,26.77
2019-05-21T00:53:53.964Z,25.57
2019-05-21T00:56:23.338Z,24.60
2019-05-21T00:58:52.733Z,21.13
2019-05-21T01:01:22.171Z,21.67
2019-05-21T01:03:51.533Z,20.40
2019-05-21T01:06:23.127Z,18.37
2019-05-21T01:08:52.501Z,18.17
2019-05-21T01:11:21.873Z,18.83
2019-05-21T01:13:51.299Z,15.33
2019-05-21T01:16:20.678Z,14.23
2019-05-21T01:18:51.261Z,13.30
2019-05-21T01:21:20.656Z,12.13
2019-05-21T01:23:50.013Z,11.20
2019-05-21T01:26:19.382Z,10.00
2019-05-21T01:28:48.765Z,9.93
2019-05-21T01:31:18.153Z,8.83
2019-05-21T01:33:47.510Z,8.40
2019-05-21T01:36:17.331Z,7.07
2019-05-21T01:38:46.690Z,7.53
2019-05-21T01:41:16.062Z,6.23
2019-05-21T01:43:45.442Z,6.37
2019-05-21T01:46:14.876Z,5.70
2019-05-21T01:48:44.227Z,6.17
2019-05-21T01:51:13.635Z,6.30
2019-05-21T02:14:43.626Z,6.70
2019-05-21T02:17:12.991Z,7.47
2019-05-21T02:19:42.385Z,7.37
2019-05-21T02:22:11.762Z,7.50
2019-05-21T02:24:41.132Z,9.03
2019-05-21T02:27:12.161Z,9.00
2019-05-21T02:29:42.219Z,8.67
2019-05-21T02:32:11.591Z,9.10
2019-05-21T02:34:40.953Z,9.47
2019-05-21T02:37:10.378Z,9.60
2019-05-21T02:39:39.740Z,10.33
2019-05-21T02:42:09.100Z,11.13
2019-05-21T02:44:38.661Z,10.50
2019-05-21T02:47:08.035Z,10.87
2019-05-21T02:49:37.422Z,10.13
2019-05-21T02:52:06.911Z,10.30
2019-05-21T02:54:41.149Z,10.53
2019-05-21T02:57:07.373Z,10.37
2019-05-21T02:59:37.437Z,10.70
2019-05-21T03:02:17.001Z,11.47
2019-05-21T03:04:46.402Z,10.43
2019-05-21T03:07:18.838Z,10.37
2019-05-21T03:09:51.128Z,10.20
2019-05-21T03:12:20.685Z,9.67
2019-05-21T03:14:50.057Z,10.17
2019-05-21T03:17:19.420Z,9.00
2019-05-21T03:19:49.653Z,9.07
2019-05-21T03:22:19.051Z,8.77
2019-05-21T03:24:48.416Z,8.43
2019-05-21T03:27:17.805Z,9.13
2019-05-21T03:29:47.172Z,9.20
2019-05-21T03:32:16.632Z,7.97
2019-05-21T03:34:46.045Z,7.53
2019-05-21T03:37:15.400Z,8.30
2019-05-21T03:39:44.783Z,6.93
2019-05-21T03:42:16.579Z,7.40
2019-05-21T03:44:58.901Z,7.27
2019-05-21T03:47:17.337Z,6.83
2019-05-21T03:49:46.781Z,7.17
2019-05-21T03:52:16.218Z,7.17
2019-05-21T03:54:45.579Z,8.03
2019-05-21T03:57:14.964Z,7.87
2019-05-21T03:59:44.327Z,7.60
2019-05-21T04:02:13.688Z,8.53
2019-05-21T04:04:43.091Z,8.67
2019-05-21T04:07:12.457Z,8.73
2019-05-21T04:09:41.822Z,8.23
2019-05-21T04:12:11.224Z,8.33
2019-05-21T04:14:48.330Z,9.07
2019-05-21T04:17:19.355Z,9.20
2019-05-21T04:19:50.087Z,8.43
2019-05-21T04:22:19.840Z,7.73
2019-05-21T04:24:49.316Z,7.80
2019-05-21T04:27:18.658Z,8.00
2019-05-21T04:29:48.030Z,7.70
2019-05-21T04:32:17.433Z,7.77
2019-05-21T04:34:46.795Z,7.63
2019-05-21T04:37:17.442Z,7.43
2019-05-21T04:39:47.074Z,7.47
2019-05-21T04:42:16.396Z,7.63
2019-05-21T04:44:45.764Z,8.57
2019-05-21T04:47:15.447Z,7.93
2019-05-21T04:49:44.816Z,8.03
2019-05-21T04:52:14.171Z,8.93
2019-05-21T04:54:43.559Z,9.77
2019-05-21T04:57:12.928Z,8.23
2019-05-21T04:59:42.286Z,8.60
2019-05-21T05:02:11.665Z,9.00
2019-05-21T05:04:41.032Z,7.83
2019-05-21T05:07:26.451Z,7.83
2019-05-21T05:09:41.866Z,7.30
2019-05-21T05:12:11.237Z,8.13
2019-05-21T05:14:40.605Z,7.27
2019-05-21T05:17:09.989Z,6.80
2019-05-21T05:19:39.362Z,5.97
2019-05-21T05:22:08.728Z,6.33
2019-05-21T05:24:38.404Z,6.80
2019-05-21T05:27:07.773Z,5.93
2019-05-21T05:29:37.135Z,6.10
2019-05-21T05:32:06.613Z,5.63
2019-05-21T05:34:35.979Z,5.30
2019-05-21T05:37:05.334Z,5.10
2019-05-21T05:39:34.787Z,5.10
2019-05-21T05:42:04.149Z,4.57
2019-05-21T05:44:33.518Z,4.63
2019-05-21T05:47:02.910Z,4.87
2019-05-21T05:49:33.914Z,4.40
2019-05-21T05:52:03.269Z,4.40
2019-05-21T05:54:32.672Z,4.57
2019-05-21T05:57:02.037Z,4.40
2019-05-21T05:59:31.399Z,4.33
2019-05-21T06:02:00.799Z,4.17
2019-05-21T06:04:30.672Z,4.07
2019-05-21T06:07:00.118Z,3.93
2019-05-21T06:09:29.506Z,4.43
2019-05-21T06:11:58.864Z,3.67
2019-05-21T06:14:28.244Z,3.27
2019-05-21T06:16:57.714Z,3.70
2019-05-21T06:19:27.083Z,3.23
2019-05-21T06:21:56.475Z,3.87
2019-05-21T06:24:25.857Z,4.17
2019-05-21T06:26:55.220Z,3.97
2019-05-21T06:29:24.598Z,4.70
2019-05-21T06:31:53.980Z,5.03
2019-05-21T06:34:23.351Z,5.17
2019-05-21T06:36:52.755Z,5.07
2019-05-21T06:39:22.218Z,6.00
2019-05-21T06:41:51.598Z,5.27
2019-05-21T06:44:20.977Z,5.13
2019-05-21T06:46:50.358Z,5.60
2019-05-21T06:49:39.099Z,5.70
2019-05-21T06:52:08.494Z,5.60
2019-05-21T06:54:37.886Z,5.83
2019-05-21T06:57:07.339Z,5.93
2019-05-21T06:59:36.825Z,5.70
2019-05-21T07:02:06.232Z,6.13
2019-05-21T07:04:35.676Z,6.17
2019-05-21T07:07:05.163Z,6.27
2019-05-21T07:09:34.549Z,6.30
2019-05-21T07:12:03.986Z,5.80
2019-05-21T07:14:33.398Z,5.77
2019-05-21T07:17:02.781Z,5.80
2019-05-21T07:19:32.210Z,5.70
2019-05-21T07:22:12.009Z,5.40
2019-05-21T07:24:33.139Z,5.60
2019-05-21T07:27:02.576Z,5.13
2019-05-21T07:29:32.020Z,5.73
2019-05-21T07:32:01.450Z,5.40
2019-05-21T07:34:30.807Z,4.83
2019-05-21T07:37:00.210Z,5.50
2019-05-21T07:39:29.602Z,4.97
2019-05-21T07:41:58.993Z,5.03
2019-05-21T07:44:28.810Z,4.80
2019-05-21T07:46:58.187Z,4.23
2019-05-21T07:49:27.559Z,4.80
2019-05-21T07:51:56.997Z,5.10
2019-05-21T07:54:28.182Z,4.80
2019-05-21T07:56:57.658Z,4.47
2019-05-21T07:59:27.085Z,5.37
2019-05-21T08:01:56.489Z,4.83
2019-05-21T08:04:25.909Z,5.03
2019-05-21T08:06:55.280Z,5.40
2019-05-21T08:09:24.650Z,6.73
2019-05-21T08:11:54.062Z,6.60
2019-05-21T08:14:23.474Z,6.30
2019-05-21T08:16:52.860Z,6.30
2019-05-21T08:19:23.794Z,5.63
2019-05-21T08:21:53.214Z,7.00
2019-05-21T08:24:22.603Z,7.47
2019-05-21T08:26:52.028Z,5.87
2019-05-21T08:29:21.504Z,7.00
2019-05-21T08:31:53.721Z,7.13
2019-05-21T08:34:23.103Z,6.90
2019-05-21T08:36:52.875Z,7.03
2019-05-21T08:39:28.911Z,7.53
2019-05-21T08:41:53.399Z,8.17
2019-05-21T08:44:23.157Z,8.73
2019-05-21T08:46:52.559Z,9.60
2019-05-21T08:49:21.958Z,9.70
2019-05-21T08:51:52.664Z,9.87
2019-05-21T08:54:23.666Z,11.43
2019-05-21T08:56:54.590Z,10.83
2019-05-21T08:59:24.464Z,11.27
2019-05-21T09:01:53.871Z,10.80
2019-05-21T09:04:45.019Z,11.33
2019-05-21T09:06:56.126Z,12.70
2019-05-21T09:09:25.507Z,14.83
2019-05-21T09:11:54.924Z,14.20
2019-05-21T09:14:24.348Z,15.13
2019-05-21T09:16:53.805Z,16.60
2019-05-21T09:19:23.204Z,18.07
2019-05-21T09:21:52.726Z,16.73
2019-05-21T09:24:22.114Z,18.83
2019-05-21T09:26:51.588Z,16.97
2019-05-21T09:29:20.998Z,17.53
2019-05-21T09:31:50.411Z,17.63
2019-05-21T09:34:22.884Z,18.17
2019-05-21T09:36:52.468Z,18.33
2019-05-21T09:39:21.874Z,17.30
2019-05-21T09:41:51.278Z,17.50
2019-05-21T09:44:20.727Z,18.60
2019-05-21T09:46:51.651Z,18.27
2019-05-21T09:49:21.124Z,18.97
2019-05-21T09:51:50.531Z,19.27
2019-05-21T09:54:19.902Z,19.60
2019-05-21T09:56:50.818Z,18.83
2019-05-21T09:59:39.985Z,18.07
2019-05-21T10:02:11.013Z,17.17
2019-05-21T10:04:40.452Z,16.47
2019-05-21T10:07:10.034Z,19.07
2019-05-21T10:09:39.430Z,18.10
2019-05-21T10:12:09.478Z,16.43
2019-05-21T10:14:38.883Z,16.07
2019-05-21T10:17:08.248Z,17.13
2019-05-21T10:19:37.638Z,15.63
2019-05-21T10:22:07.967Z,15.50
2019-05-21T10:24:37.648Z,15.33
2019-05-21T10:27:07.043Z,15.60
2019-05-21T10:29:36.465Z,14.10
2019-05-21T10:32:05.832Z,14.97
2019-05-21T10:34:35.225Z,15.47
2019-05-21T10:37:05.125Z,14.53
2019-05-21T10:39:34.488Z,14.83
2019-05-21T10:42:04.842Z,15.00
2019-05-21T10:44:34.857Z,14.43
2019-05-21T10:47:04.536Z,15.60
2019-05-21T10:49:33.922Z,15.97
2019-05-21T10:52:03.499Z,14.73
2019-05-21T10:54:32.870Z,14.37
2019-05-21T10:57:02.328Z,15.77
2019-05-21T10:59:31.694Z,15.77
2019-05-21T11:02:14.311Z,15.13
2019-05-21T11:04:45.436Z,14.30
2019-05-21T11:07:16.540Z,13.80
2019-05-21T11:09:45.909Z,14.57
2019-05-21T11:12:15.316Z,14.33
2019-05-21T11:14:44.691Z,14.23
2019-05-21T11:17:15.964Z,14.57
2019-05-21T11:19:45.998Z,15.03
2019-05-21T11:22:15.384Z,14.60
2019-05-21T11:24:44.773Z,14.97
2019-05-21T11:27:14.975Z,16.40
2019-05-21T11:29:44.357Z,16.27
2019-05-21T11:32:13.808Z,16.93
2019-05-21T11:34:43.317Z,16.63
2019-05-21T11:37:12.762Z,16.60
2019-05-21T11:39:42.593Z,16.90
2019-05-21T11:42:31.368Z,17.83
2019-05-21T11:45:00.762Z,18.00
2019-05-21T11:47:30.141Z,18.03
2019-05-21T11:49:59.613Z,20.00
2019-05-21T11:52:28.973Z,18.17
2019-05-21T11:54:58.491Z,17.67
2019-05-21T11:57:27.875Z,18.67
2019-05-21T11:59:57.292Z,19.67
2019-05-21T12:02:26.683Z,18.03
2019-05-21T12:04:56.218Z,19.67
2019-05-21T12:07:25.601Z,18.23
2019-05-21T12:09:55.644Z,17.53
2019-05-21T12:12:25.397Z,20.90
2019-05-21T12:14:54.867Z,19.10
2019-05-21T12:17:24.302Z,18.10
2019-05-21T12:19:55.359Z,19.80
2019-05-21T12:22:24.828Z,16.37
2019-05-21T12:24:54.297Z,17.73
2019-05-21T12:27:23.724Z,18.00
2019-05-21T12:29:53.273Z,17.03
2019-05-21T12:32:22.649Z,17.83
2019-05-21T12:34:52.059Z,15.67
2019-05-21T12:37:21.442Z,16.30
2019-05-21T12:39:50.843Z,16.13
2019-05-21T12:42:21.374Z,16.53
2019-05-21T12:44:50.788Z,15.53
2019-05-21T12:47:20.173Z,15.70
2019-05-21T12:49:49.983Z,16.07
2019-05-21T12:52:19.548Z,15.07
2019-05-21T12:54:49.040Z,15.97
2019-05-21T12:57:18.410Z,17.67
2019-05-21T12:59:47.788Z,17.10
2019-05-21T13:02:17.160Z,16.93
2019-05-21T13:04:46.647Z,17.53
2019-05-21T13:07:16.058Z,16.50
2019-05-21T13:09:45.410Z,17.00
2019-05-21T13:12:14.869Z,16.37
2019-05-21T13:14:44.283Z,26.60
2019-05-21T13:17:13.739Z,17.57
2019-05-21T13:19:43.132Z,16.13
2019-05-21T13:22:13.431Z,15.87
2019-05-21T13:24:42.888Z,14.87
2019-05-21T13:27:12.315Z,14.63
2019-05-21T13:29:41.763Z,14.30
2019-05-21T13:32:11.216Z,14.87
2019-05-21T13:34:41.309Z,14.10
2019-05-21T13:37:10.804Z,15.03
2019-05-21T13:39:49.488Z,15.90
2019-05-21T13:42:13.060Z,15.60
2019-05-21T13:44:42.836Z,15.53
2019-05-21T13:47:12.242Z,14.97
2019-05-21T13:49:41.729Z,14.13
2019-05-21T13:52:11.162Z,13.70
2019-05-21T13:54:40.563Z,15.30
2019-05-21T13:57:09.974Z,13.83
2019-05-21T13:59:39.348Z,14.77
2019-05-21T14:02:10.669Z,14.33
2019-05-21T14:04:40.199Z,14.47
2019-05-21T14:07:09.649Z,13.40
2019-05-21T14:09:39.020Z,13.33
2019-05-21T14:12:09.072Z,14.63
2019-05-21T14:14:38.455Z,13.63
2019-05-21T14:17:08.594Z,15.03
2019-05-21T14:19:38.374Z,15.03
2019-05-21T14:22:08.146Z,13.08
2019-05-21T14:24:37.533Z,14.33
2019-05-21T14:27:07.238Z,14.33
2019-05-21T14:29:36.647Z,14.33
2019-05-21T14:32:06.165Z,15.83
2019-05-21T14:34:35.583Z,13.90
2019-05-21T14:37:05.131Z,14.20
2019-05-21T14:39:34.544Z,13.57
2019-05-21T14:42:04.448Z,14.07
2019-05-21T14:44:33.812Z,15.37
2019-05-21T14:47:03.207Z,14.60
2019-05-21T14:49:32.680Z,15.20
2019-05-21T14:52:02.069Z,14.07
2019-05-21T14:54:31.442Z,13.87
2019-05-21T14:57:02.503Z,13.17
2019-05-21T14:59:31.875Z,13.70
2019-05-21T15:02:01.262Z,15.13
2019-05-21T15:04:30.929Z,14.83
2019-05-21T15:07:00.653Z,14.33
2019-05-21T15:09:30.232Z,13.20
2019-05-21T15:11:59.664Z,15.13
2019-05-21T15:14:29.151Z,14.17
2019-05-21T15:16:58.589Z,14.47
2019-05-21T15:19:28.027Z,14.37
2019-05-21T15:21:57.780Z,14.63
2019-05-21T15:24:27.170Z,14.67
2019-05-21T15:26:57.251Z,15.67
2019-05-21T15:29:26.724Z,15.27
2019-05-21T15:31:56.144Z,16.23
2019-05-21T15:34:25.526Z,15.60
2019-05-21T15:36:54.948Z,15.70
2019-05-21T15:39:24.345Z,14.80
2019-05-21T15:41:53.769Z,16.80
2019-05-21T15:44:23.150Z,17.83
2019-05-21T15:46:52.624Z,16.00
2019-05-21T15:49:35.733Z,16.07
2019-05-21T15:51:56.943Z,17.10
2019-05-21T15:54:26.307Z,16.67
2019-05-21T15:56:55.721Z,16.75
2019-05-21T15:59:25.110Z,17.43
2019-05-21T16:01:54.506Z,16.97
2019-05-21T16:04:23.943Z,15.97
2019-05-21T16:06:53.409Z,14.97
2019-05-21T16:09:22.828Z,14.80
2019-05-21T16:11:52.226Z,15.50
2019-05-21T16:14:21.626Z,15.70
2019-05-21T16:16:51.074Z,14.33
2019-05-21T16:19:20.480Z,23.07
2019-05-21T16:21:49.875Z,15.93
2019-05-21T16:24:19.271Z,17.60
2019-05-21T16:26:48.669Z,17.43
2019-05-21T16:29:18.144Z,17.40
2019-05-21T16:31:47.531Z,18.03
2019-05-21T16:34:17.378Z,19.60
2019-05-21T16:36:46.829Z,19.43
2019-05-21T16:39:17.276Z,19.87
2019-05-21T16:41:46.704Z,19.27
2019-05-21T16:44:16.067Z,19.73
2019-05-21T16:46:45.560Z,18.73
2019-05-21T16:49:15.074Z,18.43
2019-05-21T16:51:45.461Z,17.60
2019-05-21T16:54:14.929Z,17.93
2019-05-21T16:56:44.977Z,18.77
2019-05-21T16:59:14.991Z,18.90
2019-05-21T17:01:44.529Z,20.97
2019-05-21T17:04:13.927Z,20.77
2019-05-21T17:06:43.314Z,20.70
2019-05-21T17:09:14.106Z,21.83
2019-05-21T17:11:58.725Z,21.60
2019-05-21T17:14:14.850Z,21.70
2019-05-21T17:16:44.331Z,22.97
2019-05-21T17:19:13.759Z,22.33
2019-05-21T17:21:43.141Z,22.40
2019-05-21T17:24:12.924Z,23.87
2019-05-21T17:26:43.070Z,23.67
2019-05-21T17:29:12.607Z,24.23
2019-05-21T17:31:42.086Z,24.10
2019-05-21T17:34:11.518Z,23.43
2019-05-21T17:36:40.886Z,24.27
2019-05-21T17:39:10.336Z,23.07
2019-05-21T17:41:40.276Z,23.05
2019-05-21T17:44:09.648Z,22.97
2019-05-21T17:46:39.109Z,21.23
2019-05-21T17:49:08.641Z,21.47
2019-05-21T17:51:38.089Z,21.93
2019-05-21T17:54:09.534Z,21.97
2019-05-21T17:56:39.001Z,21.50
2019-05-21T17:59:08.829Z,20.43
2019-05-21T18:01:38.885Z,23.13
2019-05-21T18:04:08.467Z,21.77
2019-05-21T18:06:38.721Z,21.77
2019-05-21T18:09:11.843Z,22.07
2019-05-21T18:11:41.247Z,22.40
2019-05-21T18:14:10.931Z,22.67
2019-05-21T18:16:41.141Z,23.97
2019-05-21T18:19:11.308Z,25.40
2019-05-21T18:21:41.126Z,24.60
2019-05-21T18:24:12.345Z,23.57
2019-05-21T18:26:41.823Z,23.73
2019-05-21T18:29:11.409Z,25.63
2019-05-21T18:31:41.454Z,26.10
2019-05-21T18:34:11.031Z,25.27
2019-05-21T18:36:40.485Z,25.80
2019-05-21T18:39:09.876Z,24.93
2019-05-21T18:41:39.361Z,27.13
2019-05-21T18:44:08.807Z,25.77
2019-05-21T18:46:38.189Z,24.47
2019-05-21T18:49:07.682Z,24.03
2019-05-21T18:51:37.530Z,23.30
2019-05-21T18:54:08.939Z,21.70
2019-05-21T18:56:38.941Z,21.00
2019-05-21T18:59:08.474Z,22.33
2019-05-21T19:01:38.606Z,22.70
2019-05-21T19:04:08.495Z,23.47
2019-05-21T19:06:37.864Z,21.90
2019-05-21T19:09:08.410Z,21.20
2019-05-21T19:11:37.993Z,24.37
2019-05-21T19:14:07.857Z,24.03
2019-05-21T19:16:37.230Z,23.93
2019-05-21T19:19:06.634Z,23.93
2019-05-21T19:21:36.006Z,25.83
2019-05-21T19:24:05.466Z,24.27
2019-05-21T19:26:34.944Z,23.97
2019-05-21T19:29:07.671Z,23.07
2019-05-21T19:31:35.616Z,25.10
2019-05-21T19:34:05.408Z,24.00
2019-05-21T19:36:37.412Z,24.53
2019-05-21T19:39:08.097Z,25.20
2019-05-21T19:41:37.587Z,23.87
2019-05-21T19:44:07.418Z,24.00
2019-05-21T19:46:36.865Z,24.20
2019-05-21T19:49:07.849Z,22.63
2019-05-21T19:51:37.611Z,23.10
2019-05-21T19:54:07.735Z,25.30
2019-05-21T19:56:37.289Z,25.27
2019-05-21T19:59:07.310Z,25.13
2019-05-21T20:01:36.824Z,25.65
2019-05-21T20:04:09.746Z,27.93
2019-05-21T20:06:39.811Z,28.77
2019-05-21T20:09:13.546Z,30.23
2019-05-21T20:11:44.134Z,29.50
2019-05-21T20:14:13.586Z,28.47
2019-05-21T20:16:43.450Z,28.57
2019-05-21T20:19:14.850Z,27.57
2019-05-21T20:21:44.404Z,26.50
2019-05-21T20:24:14.506Z,25.87
2019-05-21T20:26:44.275Z,27.20
2019-05-21T20:29:13.956Z,25.17
2019-05-21T20:31:44.814Z,27.03
2019-05-21T20:34:14.433Z,27.30
2019-05-21T20:36:43.877Z,27.53
2019-05-21T20:39:14.889Z,25.80
2019-05-21T20:41:44.731Z,30.50
2019-05-21T20:44:15.956Z,26.83
2019-05-21T20:46:45.329Z,31.93
2019-05-21T20:49:15.759Z,34.80
2019-05-21T20:51:45.721Z,33.13
2019-05-21T20:54:16.866Z,29.80
2019-05-21T20:56:47.856Z,34.13
2019-05-21T20:59:17.309Z,29.33
2019-05-21T21:01:47.252Z,30.43
2019-05-21T21:04:16.890Z,25.73
2019-05-21T21:06:46.949Z,29.50
2019-05-21T21:09:16.453Z,28.93
2019-05-21T21:11:46.061Z,28.67
2019-05-21T21:14:18.392Z,28.70
2019-05-21T21:16:48.329Z,26.83
2019-05-21T21:19:17.806Z,24.47
2019-05-21T21:21:47.340Z,25.60
2019-05-21T21:24:16.814Z,26.63
2019-05-21T21:26:46.207Z,26.57
2019-05-21T21:29:15.613Z,29.30
2019-05-21T21:31:45.236Z,27.70
2019-05-21T21:34:16.257Z,26.57
2019-05-21T21:36:45.857Z,26.07
2019-05-21T21:39:16.297Z,25.03
2019-05-21T21:41:46.887Z,25.25
2019-05-21T21:44:31.577Z,25.43
2019-05-21T21:46:48.908Z,22.83
2019-05-21T21:49:19.465Z,24.87
2019-05-21T21:51:48.901Z,25.33
2019-05-21T21:54:18.617Z,24.00
2019-05-21T21:56:48.116Z,24.00
2019-05-21T21:59:17.693Z,26.23
2019-05-21T22:01:54.521Z,24.53
2019-05-21T22:04:30.993Z,24.57
2019-05-21T22:07:01.195Z,26.50
2019-05-21T22:09:31.931Z,23.93
2019-05-21T22:12:03.891Z,25.13
2019-05-21T22:14:49.209Z,26.07
2019-05-21T22:17:06.734Z,20.43
2019-05-21T22:19:37.463Z,19.77
2019-05-21T22:22:07.674Z,22.80
2019-05-21T22:24:37.127Z,21.47
2019-05-21T22:27:07.013Z,19.73
2019-05-21T22:29:37.118Z,21.20
2019-05-21T22:32:06.711Z,23.07
2019-05-21T22:34:36.278Z,22.27
2019-05-21T22:37:07.756Z,21.40
2019-05-21T22:39:37.705Z,22.07
2019-05-21T22:42:09.444Z,22.43
2019-05-21T22:44:39.156Z,21.73
2019-05-21T22:47:09.318Z,21.60
2019-05-21T22:49:38.872Z,20.97
2019-05-21T22:52:08.300Z,19.87
2019-05-21T22:54:37.680Z,19.40
2019-05-21T22:57:07.313Z,18.30
2019-05-21T22:59:36.680Z,16.50
2019-05-21T23:02:08.108Z,17.50
2019-05-21T23:04:37.722Z,16.90
2019-05-21T23:07:08.714Z,17.00
2019-05-21T23:09:38.102Z,16.33
2019-05-21T23:12:08.549Z,17.03
2019-05-21T23:14:37.934Z,14.10
2019-05-21T23:17:08.912Z,14.27
2019-05-21T23:19:38.886Z,12.83
2019-05-21T23:22:12.003Z,11.67
2019-05-21T23:24:42.101Z,12.10
2019-05-21T23:27:13.622Z,11.07
2019-05-21T23:29:43.370Z,10.97
2019-05-21T23:32:15.217Z,10.08
2019-05-21T23:34:46.190Z,10.43
2019-05-21T23:37:17.954Z,9.77
2019-05-21T23:39:49.694Z,8.17
2019-05-21T23:42:29.113Z,8.87
2019-05-21T23:44:50.727Z,8.87
2019-05-21T23:47:20.558Z,8.60
2019-05-21T23:49:50.179Z,9.03
2019-05-21T23:52:20.156Z,8.10
2019-05-21T23:54:52.581Z,9.40
2019-05-21T23:57:30.209Z,8.00
